createdAt,value
2018-07-12T00:02:01.981Z,99524.00
2018-07-12T00:04:04.720Z,99533.00
2018-07-12T00:06:07.479Z,99527.00
2018-07-12T00:08:10.196Z,99529.00
2018-07-12T00:10:12.938Z,99528.00
2018-07-12T00:14:16.532Z,99529.00
2018-07-12T00:16:19.303Z,99530.00
2018-07-12T00:18:22.006Z,99525.00
2018-07-12T00:20:24.772Z,99519.00
2018-07-12T00:22:27.495Z,99531.00
2018-07-12T00:24:30.263Z,99526.00
2018-07-12T00:26:32.966Z,99526.00
2018-07-12T00:28:35.730Z,99526.00
2018-07-12T00:30:38.458Z,99529.00
2018-07-12T00:32:41.301Z,99530.00
2018-07-12T00:34:44.046Z,99535.00
2018-07-12T00:36:46.757Z,99525.00
2018-07-12T00:38:49.465Z,99522.00
2018-07-12T00:40:52.207Z,99529.00
2018-07-12T00:42:55.572Z,99522.00
2018-07-12T00:44:58.786Z,99536.00
2018-07-12T00:47:01.541Z,99528.00
2018-07-12T00:49:04.306Z,99525.00
2018-07-12T00:51:07.045Z,99531.00
2018-07-12T00:53:09.771Z,99533.00
2018-07-12T00:55:12.722Z,99529.00
2018-07-12T00:57:15.435Z,99527.00
2018-07-12T00:59:18.158Z,99532.00
2018-07-12T01:01:22.405Z,99542.00
2018-07-12T01:03:25.409Z,99530.00
2018-07-12T01:05:29.900Z,99533.00
2018-07-12T01:07:34.574Z,99527.00
2018-07-12T01:09:38.506Z,99527.00
2018-07-12T01:11:43.186Z,99526.00
2018-07-12T01:13:46.334Z,99526.00
2018-07-12T01:15:49.235Z,99529.00
2018-07-12T01:17:52.188Z,99523.00
2018-07-12T01:19:57.306Z,99520.00
2018-07-12T01:22:02.347Z,99522.00
2018-07-12T01:24:06.267Z,99520.00
2018-07-12T01:26:11.033Z,99517.00
2018-07-12T01:28:16.360Z,99511.00
2018-07-12T01:30:19.574Z,99505.00
2018-07-12T01:32:22.911Z,99511.00
2018-07-12T01:34:25.974Z,99510.00
2018-07-12T01:36:29.917Z,99513.00
2018-07-12T01:38:32.903Z,99508.00
2018-07-12T01:40:35.921Z,99506.00
2018-07-12T01:42:39.869Z,99505.00
2018-07-12T01:44:43.855Z,99505.00
2018-07-12T01:46:47.607Z,99514.00
2018-07-12T01:48:51.554Z,99511.00
2018-07-12T01:50:55.626Z,99511.00
2018-07-12T01:52:59.290Z,99523.00
2018-07-12T01:55:03.343Z,99515.00
2018-07-12T01:57:08.283Z,99514.00
2018-07-12T01:59:12.238Z,99512.00
2018-07-12T02:01:17.876Z,99519.00
2018-07-12T02:03:20.730Z,99512.00
2018-07-12T02:05:24.310Z,99517.00
2018-07-12T02:07:27.095Z,99519.00
2018-07-12T02:09:31.324Z,99520.00
2018-07-12T02:11:34.216Z,99523.00
2018-07-12T02:13:39.020Z,99516.00
2018-07-12T02:15:43.004Z,99522.00
2018-07-12T02:17:46.975Z,99523.00
2018-07-12T02:19:51.335Z,99525.00
2018-07-12T02:21:55.392Z,99509.00
2018-07-12T02:23:59.263Z,99515.00
2018-07-12T02:26:03.432Z,99517.00
2018-07-12T02:28:06.277Z,99512.00
2018-07-12T02:30:09.031Z,99510.00
2018-07-12T02:32:11.794Z,99507.00
2018-07-12T02:34:14.596Z,99507.00
2018-07-12T02:36:17.355Z,99520.00
2018-07-12T02:38:20.059Z,99514.00
2018-07-12T02:40:22.814Z,99524.00
2018-07-12T02:42:25.567Z,99513.00
2018-07-12T02:44:28.299Z,99511.00
2018-07-12T02:46:31.007Z,99510.00
2018-07-12T02:48:33.737Z,99516.00
2018-07-12T02:50:36.458Z,99519.00
2018-07-12T02:52:39.220Z,99518.00
2018-07-12T02:54:42.000Z,99514.00
2018-07-12T02:56:45.218Z,99516.00
2018-07-12T02:58:47.931Z,99518.00
2018-07-12T03:00:50.693Z,99518.00
2018-07-12T03:02:53.451Z,99515.00
2018-07-12T03:04:56.224Z,99508.00
2018-07-12T03:06:58.983Z,99514.00
2018-07-12T03:09:01.702Z,99515.00
2018-07-12T03:11:05.216Z,99513.00
2018-07-12T03:13:07.953Z,99515.00
2018-07-12T03:15:10.729Z,99518.00
2018-07-12T03:17:13.492Z,99520.00
2018-07-12T03:19:17.146Z,99514.00
2018-07-12T03:21:20.023Z,99517.00
2018-07-12T03:23:22.785Z,99515.00
2018-07-12T03:25:25.571Z,99519.00
2018-07-12T03:27:28.338Z,99519.00
2018-07-12T03:29:31.088Z,99524.00
2018-07-12T03:31:33.811Z,99520.00
2018-07-12T03:33:36.638Z,99524.00
2018-07-12T03:35:39.380Z,99514.00
2018-07-12T03:37:42.159Z,99516.00
2018-07-12T03:39:45.525Z,99526.00
2018-07-12T03:41:48.273Z,99519.00
2018-07-12T03:43:51.004Z,99522.00
2018-07-12T03:45:53.755Z,99523.00
2018-07-12T03:47:56.519Z,99522.00
2018-07-12T03:49:59.266Z,99517.00
2018-07-12T03:52:02.014Z,99520.00
2018-07-12T03:54:05.649Z,99516.00
2018-07-12T03:56:08.350Z,99523.00
2018-07-12T03:58:11.241Z,99530.00
2018-07-12T04:00:14.127Z,99526.00
2018-07-12T04:02:18.824Z,99531.00
2018-07-12T04:04:23.666Z,99524.00
2018-07-12T04:06:27.926Z,99519.00
2018-07-12T04:08:30.706Z,99523.00
2018-07-12T04:10:35.483Z,99521.00
2018-07-12T04:12:39.557Z,99524.00
2018-07-12T04:14:44.545Z,99518.00
2018-07-12T04:16:48.727Z,99521.00
2018-07-12T04:18:52.995Z,99517.00
2018-07-12T04:20:55.846Z,99520.00
2018-07-12T04:22:58.590Z,99520.00
2018-07-12T04:25:01.333Z,99516.00
2018-07-12T04:27:04.079Z,99523.00
2018-07-12T04:29:06.891Z,99522.00
2018-07-12T04:31:09.600Z,99532.00
2018-07-12T04:33:12.345Z,99526.00
2018-07-12T04:35:15.076Z,99532.00
2018-07-12T04:37:18.220Z,99533.00
2018-07-12T04:39:20.974Z,99538.00
2018-07-12T04:41:23.692Z,99542.00
2018-07-12T04:43:26.527Z,99538.00
2018-07-12T04:45:29.346Z,99546.00
2018-07-12T04:47:32.091Z,99542.00
2018-07-12T04:49:34.836Z,99535.00
2018-07-12T04:51:37.590Z,99546.00
2018-07-12T04:53:40.328Z,99556.00
2018-07-12T04:55:43.306Z,99549.00
2018-07-12T04:57:46.030Z,99561.00
2018-07-12T04:59:48.755Z,99563.00
2018-07-12T05:01:51.479Z,99557.00
2018-07-12T05:03:54.227Z,99546.00
2018-07-12T05:05:57.274Z,99548.00
2018-07-12T05:08:00.075Z,99550.00
2018-07-12T05:10:02.846Z,99548.00
2018-07-12T05:12:06.214Z,99544.00
2018-07-12T05:14:08.967Z,99544.00
2018-07-12T05:16:11.739Z,99543.00
2018-07-12T05:18:14.538Z,99542.00
2018-07-12T05:20:17.242Z,99544.00
2018-07-12T05:22:20.119Z,99548.00
2018-07-12T05:24:22.843Z,99546.00
2018-07-12T05:26:26.371Z,99554.00
2018-07-12T05:28:29.261Z,99550.00
2018-07-12T05:30:31.978Z,99563.00
2018-07-12T05:32:34.715Z,99562.00
2018-07-12T05:34:37.475Z,99553.00
2018-07-12T05:37:00.806Z,99563.00
2018-07-12T05:39:05.802Z,99562.00
2018-07-12T05:41:11.630Z,99563.00
2018-07-12T05:43:16.219Z,99564.00
2018-07-12T05:45:20.698Z,99568.00
2018-07-12T05:47:25.210Z,99564.00
2018-07-12T05:49:29.685Z,99571.00
2018-07-12T05:51:34.124Z,99557.00
2018-07-12T05:53:38.611Z,99566.00
2018-07-12T05:55:43.310Z,99564.00
2018-07-12T05:57:48.350Z,99572.00
2018-07-12T05:59:52.930Z,99574.00
2018-07-12T06:02:14.449Z,99584.00
2018-07-12T06:04:18.931Z,99580.00
2018-07-12T06:06:23.477Z,99588.00
2018-07-12T06:08:28.474Z,99596.00
2018-07-12T06:10:33.607Z,99583.00
2018-07-12T06:12:38.148Z,99590.00
2018-07-12T06:14:42.627Z,99592.00
2018-07-12T06:16:47.234Z,99594.00
2018-07-12T06:18:51.910Z,99603.00
2018-07-12T06:20:56.363Z,99599.00
2018-07-12T06:23:01.607Z,99611.00
2018-07-12T06:25:06.650Z,99618.00
2018-07-12T06:27:11.182Z,99615.00
2018-07-12T06:29:15.695Z,99620.00
2018-07-12T06:31:20.177Z,99620.00
2018-07-12T06:33:24.701Z,99617.00
2018-07-12T06:35:29.262Z,99621.00
2018-07-12T06:37:33.707Z,99612.00
2018-07-12T06:39:38.243Z,99618.00
2018-07-12T06:41:42.737Z,99610.00
2018-07-12T06:43:47.222Z,99610.00
2018-07-12T06:45:51.757Z,99617.00
2018-07-12T06:47:56.212Z,99613.00
2018-07-12T06:50:00.731Z,99614.00
2018-07-12T06:52:05.323Z,99615.00
2018-07-12T06:54:09.840Z,99620.00
2018-07-12T06:56:14.280Z,99620.00
2018-07-12T06:58:23.794Z,99623.00
2018-07-12T07:00:28.251Z,99627.00
2018-07-12T07:02:32.706Z,99627.00
2018-07-12T07:04:37.230Z,99622.00
2018-07-12T07:06:42.519Z,99637.00
2018-07-12T07:08:46.807Z,99637.00
2018-07-12T07:10:51.390Z,99635.00
2018-07-12T07:12:55.892Z,99640.00
2018-07-12T07:15:00.418Z,99642.00
2018-07-12T07:17:04.962Z,99648.00
2018-07-12T07:19:09.690Z,99642.00
2018-07-12T07:21:14.118Z,99644.00
2018-07-12T07:23:18.731Z,99646.00
2018-07-12T07:25:23.186Z,99645.00
2018-07-12T07:27:27.675Z,99641.00
2018-07-12T07:29:32.228Z,99647.00
2018-07-12T07:31:36.687Z,99656.00
2018-07-12T07:33:41.125Z,99659.00
2018-07-12T07:35:45.785Z,99660.00
2018-07-12T07:37:50.218Z,99660.00
2018-07-12T07:39:55.093Z,99658.00
2018-07-12T07:41:59.598Z,99651.00
2018-07-12T07:44:04.199Z,99660.00
2018-07-12T07:46:08.723Z,99657.00
2018-07-12T07:48:13.433Z,99657.00
2018-07-12T07:50:17.911Z,99659.00
2018-07-12T07:52:22.460Z,99664.00
2018-07-12T07:54:26.904Z,99667.00
2018-07-12T07:56:31.377Z,99670.00
2018-07-12T07:58:35.831Z,99672.00
2018-07-12T08:00:40.316Z,99674.00
2018-07-12T08:02:44.771Z,99671.00
2018-07-12T08:04:50.314Z,99670.00
2018-07-12T08:06:54.843Z,99676.00
2018-07-12T08:08:59.383Z,99675.00
2018-07-12T08:11:04.251Z,99685.00
2018-07-12T08:13:09.497Z,99671.00
2018-07-12T08:15:14.586Z,99676.00
2018-07-12T08:17:19.070Z,99679.00
2018-07-12T08:19:23.545Z,99672.00
2018-07-12T08:21:28.057Z,99683.00
2018-07-12T08:23:32.516Z,99677.00
2018-07-12T08:25:37.001Z,99681.00
2018-07-12T08:27:58.409Z,99686.00
2018-07-12T08:30:02.910Z,99681.00
2018-07-12T08:32:07.483Z,99684.00
2018-07-12T08:34:11.946Z,99688.00
2018-07-12T08:36:16.480Z,99682.00
2018-07-12T08:38:20.970Z,99679.00
2018-07-12T08:40:25.556Z,99695.00
2018-07-12T08:42:30.702Z,99684.00
2018-07-12T08:44:35.175Z,99693.00
2018-07-12T08:46:39.701Z,99693.00
2018-07-12T08:48:44.161Z,99691.00
2018-07-12T08:50:48.667Z,99686.00
2018-07-12T08:52:53.126Z,99692.00
2018-07-12T08:54:58.027Z,99684.00
2018-07-12T08:57:02.514Z,99687.00
2018-07-12T08:59:06.968Z,99685.00
2018-07-12T09:01:11.477Z,99689.00
2018-07-12T09:03:15.999Z,99686.00
2018-07-12T09:05:20.528Z,99687.00
2018-07-12T09:07:25.074Z,99694.00
2018-07-12T09:09:29.519Z,99691.00
2018-07-12T09:11:33.988Z,99688.00
2018-07-12T09:13:38.495Z,99684.00
2018-07-12T09:15:43.000Z,99692.00
2018-07-12T09:17:47.451Z,99695.00
2018-07-12T09:19:51.964Z,99694.00
2018-07-12T09:21:56.481Z,99693.00
2018-07-12T09:24:01.039Z,99695.00
2018-07-12T09:26:05.598Z,99697.00
2018-07-12T09:28:10.377Z,99694.00
2018-07-12T09:30:14.920Z,99689.00
2018-07-12T09:32:19.404Z,99699.00
2018-07-12T09:34:23.889Z,99695.00
2018-07-12T09:36:28.358Z,99696.00
2018-07-12T09:38:46.843Z,99699.00
2018-07-12T09:40:51.291Z,99697.00
2018-07-12T09:42:55.833Z,99695.00
2018-07-12T09:45:00.734Z,99693.00
2018-07-12T09:47:05.241Z,99694.00
2018-07-12T09:49:11.789Z,99696.00
2018-07-12T09:51:17.365Z,99691.00
2018-07-12T09:53:21.562Z,99697.00
2018-07-12T09:55:26.048Z,99698.00
2018-07-12T09:57:47.982Z,99699.00
2018-07-12T09:59:53.566Z,99696.00
2018-07-12T10:02:03.507Z,99709.00
2018-07-12T10:04:08.039Z,99706.00
2018-07-12T10:06:18.119Z,99695.00
2018-07-12T10:08:27.802Z,99702.00
2018-07-12T10:10:36.430Z,99698.00
2018-07-12T10:12:46.070Z,99694.00
2018-07-12T10:14:51.886Z,99700.00
2018-07-12T10:17:01.603Z,99704.00
2018-07-12T10:19:06.059Z,99694.00
2018-07-12T10:21:10.769Z,99694.00
2018-07-12T10:23:15.252Z,99698.00
2018-07-12T10:25:19.730Z,99694.00
2018-07-12T10:27:23.961Z,99700.00
2018-07-12T10:29:28.061Z,99701.00
2018-07-12T10:31:32.519Z,99708.00
2018-07-12T10:33:36.978Z,99714.00
2018-07-12T10:35:41.467Z,99711.00
2018-07-12T10:37:45.930Z,99711.00
2018-07-12T10:39:50.601Z,99708.00
2018-07-12T10:41:55.065Z,99704.00
2018-07-12T10:43:59.628Z,99707.00
2018-07-12T10:46:04.190Z,99711.00
2018-07-12T10:48:08.842Z,99708.00
2018-07-12T10:50:14.578Z,99713.00
2018-07-12T10:52:19.095Z,99711.00
2018-07-12T10:54:23.555Z,99711.00
2018-07-12T10:56:28.060Z,99712.00
2018-07-12T10:58:32.802Z,99705.00
2018-07-12T11:00:37.342Z,99711.00
2018-07-12T11:02:41.846Z,99722.00
2018-07-12T11:04:46.324Z,99721.00
2018-07-12T11:06:50.892Z,99727.00
2018-07-12T11:08:55.351Z,99720.00
2018-07-12T11:10:59.793Z,99713.00
2018-07-12T11:13:14.468Z,99715.00
2018-07-12T11:15:19.111Z,99717.00
2018-07-12T11:17:24.231Z,99719.00
2018-07-12T11:19:28.751Z,99716.00
2018-07-12T11:21:33.291Z,99710.00
2018-07-12T11:23:37.805Z,99707.00
2018-07-12T11:25:46.592Z,99709.00
2018-07-12T11:27:51.233Z,99710.00
2018-07-12T11:29:58.513Z,99711.00
2018-07-12T11:32:03.033Z,99707.00
2018-07-12T11:34:08.093Z,99712.00
2018-07-12T11:36:12.803Z,99714.00
2018-07-12T11:38:17.258Z,99702.00
2018-07-12T11:40:21.709Z,99708.00
2018-07-12T11:42:26.186Z,99708.00
2018-07-12T11:44:31.265Z,99696.00
2018-07-12T11:46:35.716Z,99699.00
2018-07-12T11:48:41.193Z,99703.00
2018-07-12T11:50:45.742Z,99692.00
2018-07-12T11:52:50.222Z,99692.00
2018-07-12T11:54:54.626Z,99693.00
2018-07-12T11:56:59.038Z,99694.00
2018-07-12T11:59:03.518Z,99699.00
2018-07-12T12:01:07.881Z,99695.00
2018-07-12T12:03:12.379Z,99696.00
2018-07-12T12:05:16.904Z,99701.00
2018-07-12T12:07:21.408Z,99697.00
2018-07-12T12:09:25.534Z,99695.00
2018-07-12T12:11:30.032Z,99696.00
2018-07-12T12:13:34.524Z,99701.00
2018-07-12T12:15:38.962Z,99706.00
2018-07-12T12:17:43.466Z,99696.00
2018-07-12T12:19:47.978Z,99695.00
2018-07-12T12:21:52.934Z,99690.00
2018-07-12T12:23:57.482Z,99688.00
2018-07-12T12:26:01.916Z,99683.00
2018-07-12T12:28:06.613Z,99679.00
2018-07-12T12:30:11.088Z,99685.00
2018-07-12T12:32:15.546Z,99675.00
2018-07-12T12:34:20.095Z,99685.00
2018-07-12T12:36:24.648Z,99681.00
2018-07-12T12:38:29.103Z,99681.00
2018-07-12T12:40:33.598Z,99676.00
2018-07-12T12:42:38.051Z,99675.00
2018-07-12T12:44:42.503Z,99673.00
2018-07-12T12:46:46.951Z,99680.00
2018-07-12T12:48:52.207Z,99678.00
2018-07-12T12:50:56.706Z,99672.00
2018-07-12T12:53:01.224Z,99674.00
2018-07-12T12:55:05.962Z,99674.00
2018-07-12T12:57:10.411Z,99665.00
2018-07-12T12:59:14.886Z,99670.00
2018-07-12T13:01:19.372Z,99671.00
2018-07-12T13:03:24.035Z,99668.00
2018-07-12T13:05:28.563Z,99675.00
2018-07-12T13:07:33.011Z,99677.00
2018-07-12T13:09:38.476Z,99665.00
2018-07-12T13:11:43.042Z,99678.00
2018-07-12T13:13:47.906Z,99674.00
2018-07-12T13:15:52.364Z,99678.00
2018-07-12T13:17:57.302Z,99673.00
2018-07-12T13:20:01.824Z,99671.00
2018-07-12T13:22:06.442Z,99668.00
2018-07-12T13:24:11.693Z,99674.00
2018-07-12T13:26:16.155Z,99670.00
2018-07-12T13:28:20.309Z,99666.00
2018-07-12T13:30:24.872Z,99659.00
2018-07-12T13:32:29.983Z,99662.00
2018-07-12T13:34:34.508Z,99662.00
2018-07-12T13:36:39.072Z,99660.00
2018-07-12T13:38:43.647Z,99670.00
2018-07-12T13:40:48.119Z,99670.00
2018-07-12T13:42:54.259Z,99664.00
2018-07-12T13:44:58.840Z,99664.00
2018-07-12T13:47:03.354Z,99666.00
2018-07-12T13:49:07.803Z,99665.00
2018-07-12T13:51:12.346Z,99656.00
2018-07-12T13:53:16.865Z,99655.00
2018-07-12T13:55:21.413Z,99657.00
2018-07-12T13:57:25.951Z,99654.00
2018-07-12T13:59:30.455Z,99660.00
2018-07-12T14:01:35.162Z,99661.00
2018-07-12T14:03:40.906Z,99664.00
2018-07-12T14:05:45.573Z,99663.00
2018-07-12T14:07:50.028Z,99661.00
2018-07-12T14:09:54.530Z,99659.00
2018-07-12T14:11:58.746Z,99663.00
2018-07-12T14:14:03.323Z,99655.00
2018-07-12T14:16:07.815Z,99648.00
2018-07-12T14:18:12.448Z,99654.00
2018-07-12T14:20:16.943Z,99658.00
2018-07-12T14:22:21.466Z,99647.00
2018-07-12T14:24:25.664Z,99654.00
2018-07-12T14:26:30.162Z,99657.00
2018-07-12T14:28:34.756Z,99654.00
2018-07-12T14:30:39.310Z,99655.00
2018-07-12T14:32:43.754Z,99650.00
2018-07-12T14:34:48.475Z,99656.00
2018-07-12T14:36:52.945Z,99648.00
2018-07-12T14:38:57.455Z,99650.00
2018-07-12T14:41:01.943Z,99646.00
2018-07-12T14:43:06.417Z,99643.00
2018-07-12T14:45:10.903Z,99646.00
2018-07-12T14:47:15.070Z,99644.00
2018-07-12T14:49:19.534Z,99640.00
2018-07-12T14:51:25.941Z,99647.00
2018-07-12T14:53:30.427Z,99642.00
2018-07-12T14:55:34.952Z,99640.00
2018-07-12T14:57:39.409Z,99635.00
2018-07-12T14:59:46.695Z,99635.00
2018-07-12T15:01:52.068Z,99640.00
2018-07-12T15:03:59.922Z,99635.00
2018-07-12T15:06:07.943Z,99641.00
2018-07-12T15:08:12.502Z,99628.00
2018-07-12T15:10:18.529Z,99636.00
2018-07-12T15:12:23.004Z,99628.00
2018-07-12T15:14:27.501Z,99635.00
2018-07-12T15:16:34.091Z,99634.00
2018-07-12T15:18:39.260Z,99628.00
2018-07-12T15:20:43.783Z,99636.00
2018-07-12T15:22:48.403Z,99635.00
2018-07-12T15:24:53.009Z,99627.00
2018-07-12T15:26:58.119Z,99635.00
2018-07-12T15:29:02.859Z,99620.00
2018-07-12T15:31:07.478Z,99624.00
2018-07-12T15:33:12.758Z,99628.00
2018-07-12T15:35:17.263Z,99622.00
2018-07-12T15:37:22.271Z,99620.00
2018-07-12T15:39:26.783Z,99622.00
2018-07-12T15:41:31.198Z,99618.00
2018-07-12T15:43:35.761Z,99626.00
2018-07-12T15:45:40.230Z,99618.00
2018-07-12T15:47:44.691Z,99622.00
2018-07-12T15:49:49.198Z,99630.00
2018-07-12T15:51:54.668Z,99637.00
2018-07-12T15:53:59.142Z,99637.00
2018-07-12T15:56:03.618Z,99635.00
2018-07-12T15:58:08.046Z,99632.00
2018-07-12T16:00:13.150Z,99635.00
2018-07-12T16:02:18.612Z,99634.00
2018-07-12T16:04:23.231Z,99632.00
2018-07-12T16:06:27.798Z,99638.00
2018-07-12T16:08:32.253Z,99645.00
2018-07-12T16:10:36.900Z,99647.00
2018-07-12T16:12:41.390Z,99639.00
2018-07-12T16:14:45.891Z,99641.00
2018-07-12T16:16:50.370Z,99639.00
2018-07-12T16:18:54.868Z,99635.00
2018-07-12T16:20:59.467Z,99633.00
2018-07-12T16:23:03.602Z,99646.00
2018-07-12T16:25:08.096Z,99645.00
2018-07-12T16:27:12.578Z,99651.00
2018-07-12T16:29:17.525Z,99647.00
2018-07-12T16:31:21.975Z,99646.00
2018-07-12T16:33:27.320Z,99643.00
2018-07-12T16:35:32.424Z,99637.00
2018-07-12T16:37:36.883Z,99638.00
2018-07-12T16:39:41.379Z,99640.00
2018-07-12T16:41:45.941Z,99642.00
2018-07-12T16:43:50.577Z,99637.00
2018-07-12T16:45:56.204Z,99638.00
2018-07-12T16:48:01.696Z,99634.00
2018-07-12T16:50:07.121Z,99632.00
2018-07-12T16:52:11.594Z,99633.00
2018-07-12T16:54:16.312Z,99630.00
2018-07-12T16:56:20.796Z,99629.00
2018-07-12T16:58:25.246Z,99631.00
2018-07-12T17:00:29.814Z,99633.00
2018-07-12T17:02:34.291Z,99635.00
2018-07-12T17:04:38.978Z,99635.00
2018-07-12T17:06:43.525Z,99633.00
2018-07-12T17:08:47.967Z,99630.00
2018-07-12T17:10:52.415Z,99624.00
2018-07-12T17:12:56.911Z,99630.00
2018-07-12T17:15:01.667Z,99634.00
2018-07-12T17:17:06.346Z,99635.00
2018-07-12T17:19:10.770Z,99634.00
2018-07-12T17:21:16.435Z,99627.00
2018-07-12T17:23:20.968Z,99630.00
2018-07-12T17:25:25.385Z,99634.00
2018-07-12T17:27:29.840Z,99633.00
2018-07-12T17:29:34.158Z,99633.00
2018-07-12T17:31:38.658Z,99643.00
2018-07-12T17:33:43.107Z,99634.00
2018-07-12T17:35:47.539Z,99632.00
2018-07-12T17:37:52.138Z,99633.00
2018-07-12T17:39:56.665Z,99646.00
2018-07-12T17:42:01.168Z,99639.00
2018-07-12T17:44:05.706Z,99646.00
2018-07-12T17:46:10.148Z,99644.00
2018-07-12T17:48:14.705Z,99652.00
2018-07-12T17:50:19.176Z,99657.00
2018-07-12T17:52:23.662Z,99649.00
2018-07-12T17:54:28.161Z,99657.00
2018-07-12T17:56:32.703Z,99662.00
2018-07-12T17:58:37.399Z,99661.00
2018-07-12T18:00:41.828Z,99662.00
2018-07-12T18:02:46.335Z,99660.00
2018-07-12T18:04:50.873Z,99663.00
2018-07-12T18:06:56.506Z,99668.00
2018-07-12T18:09:01.576Z,99667.00
2018-07-12T18:11:06.197Z,99667.00
2018-07-12T18:13:10.647Z,99666.00
2018-07-12T18:15:15.138Z,99677.00
2018-07-12T18:17:19.607Z,99695.00
2018-07-12T18:19:24.039Z,99689.00
2018-07-12T18:21:28.567Z,99683.00
2018-07-12T18:23:33.093Z,99683.00
2018-07-12T18:25:37.791Z,99690.00
2018-07-12T18:27:42.325Z,99700.00
2018-07-12T18:29:46.840Z,99693.00
2018-07-12T18:31:50.969Z,99693.00
2018-07-12T18:33:55.442Z,99696.00
2018-07-12T18:35:59.967Z,99696.00
2018-07-12T18:38:07.134Z,99701.00
2018-07-12T18:40:12.293Z,99698.00
2018-07-12T18:42:16.601Z,99691.00
2018-07-12T18:44:21.164Z,99688.00
2018-07-12T18:46:26.122Z,99692.00
2018-07-12T18:48:31.344Z,99685.00
2018-07-12T18:50:36.955Z,99685.00
2018-07-12T18:52:41.414Z,99683.00
2018-07-12T18:54:45.843Z,99696.00
2018-07-12T18:56:50.432Z,99700.00
2018-07-12T18:58:54.981Z,99697.00
2018-07-12T19:00:59.479Z,99698.00
2018-07-12T19:03:03.910Z,99697.00
2018-07-12T19:05:09.240Z,99696.00
2018-07-12T19:07:17.154Z,99703.00
2018-07-12T19:09:21.698Z,99698.00
2018-07-12T19:11:26.199Z,99701.00
2018-07-12T19:13:31.401Z,99705.00
2018-07-12T19:15:36.947Z,99711.00
2018-07-12T19:17:41.442Z,99712.00
2018-07-12T19:19:46.010Z,99707.00
2018-07-12T19:21:50.441Z,99718.00
2018-07-12T19:23:54.963Z,99717.00
2018-07-12T19:25:59.481Z,99716.00
2018-07-12T19:28:04.159Z,99713.00
2018-07-12T19:30:08.920Z,99710.00
2018-07-12T19:32:13.082Z,99729.00
2018-07-12T19:34:18.179Z,99721.00
2018-07-12T19:36:22.770Z,99727.00
2018-07-12T19:38:27.322Z,99728.00
2018-07-12T19:40:31.779Z,99730.00
2018-07-12T19:42:37.250Z,99727.00
2018-07-12T19:44:41.783Z,99733.00
2018-07-12T19:46:46.272Z,99730.00
2018-07-12T19:48:50.738Z,99733.00
2018-07-12T19:50:55.178Z,99739.00
2018-07-12T19:52:59.600Z,99732.00
2018-07-12T19:55:04.208Z,99740.00
2018-07-12T19:57:09.175Z,99736.00
2018-07-12T19:59:13.510Z,99736.00
2018-07-12T20:01:22.458Z,99738.00
2018-07-12T20:03:27.922Z,99738.00
2018-07-12T20:05:35.280Z,99743.00
2018-07-12T20:07:42.300Z,99751.00
2018-07-12T20:09:53.667Z,99751.00
2018-07-12T20:12:05.222Z,99749.00
2018-07-12T20:14:13.952Z,99753.00
2018-07-12T20:16:18.913Z,99761.00
2018-07-12T20:18:23.371Z,99763.00
2018-07-12T20:20:28.204Z,99763.00
2018-07-12T20:22:32.709Z,99767.00
2018-07-12T20:24:38.031Z,99764.00
2018-07-12T20:26:42.471Z,99751.00
2018-07-12T20:28:46.930Z,99751.00
2018-07-12T20:30:51.478Z,99759.00
2018-07-12T20:32:56.015Z,99763.00
2018-07-12T20:35:00.172Z,99770.00
2018-07-12T20:37:04.795Z,99767.00
2018-07-12T20:39:12.418Z,99771.00
2018-07-12T20:41:17.427Z,99761.00
2018-07-12T20:43:23.326Z,99760.00
2018-07-12T20:45:27.823Z,99770.00
2018-07-12T20:47:32.394Z,99769.00
2018-07-12T20:49:37.762Z,99769.00
2018-07-12T20:51:42.216Z,99772.00
2018-07-12T20:53:46.712Z,99768.00
2018-07-12T20:55:51.247Z,99767.00
2018-07-12T20:57:55.706Z,99772.00
2018-07-12T21:00:00.256Z,99765.00
2018-07-12T21:02:04.691Z,99774.00
2018-07-12T21:04:09.235Z,99774.00
2018-07-12T21:06:13.770Z,99771.00
2018-07-12T21:08:18.670Z,99771.00
2018-07-12T21:10:27.603Z,99779.00
2018-07-12T21:12:32.370Z,99775.00
2018-07-12T21:14:37.624Z,99775.00
2018-07-12T21:16:42.386Z,99775.00
2018-07-12T21:18:46.823Z,99784.00
2018-07-12T21:20:51.302Z,99780.00
2018-07-12T21:22:55.806Z,99784.00
2018-07-12T21:25:00.697Z,99786.00
2018-07-12T21:27:05.305Z,99787.00
2018-07-12T21:29:09.750Z,99777.00
2018-07-12T21:31:14.206Z,99781.00
2018-07-12T21:33:18.963Z,99788.00
2018-07-12T21:35:23.444Z,99781.00
2018-07-12T21:37:27.931Z,99791.00
2018-07-12T21:39:32.507Z,99789.00
2018-07-12T21:41:38.289Z,99792.00
2018-07-12T21:43:45.200Z,99787.00
2018-07-12T21:45:52.649Z,99787.00
2018-07-12T21:47:58.191Z,99793.00
2018-07-12T21:50:02.687Z,99798.00
2018-07-12T21:52:07.302Z,99788.00
2018-07-12T21:54:11.860Z,99797.00
2018-07-12T21:56:16.390Z,99790.00
2018-07-12T21:58:20.798Z,99800.00
2018-07-12T22:00:25.286Z,99799.00
2018-07-12T22:02:29.752Z,99800.00
2018-07-12T22:04:34.288Z,99805.00
2018-07-12T22:08:48.616Z,99801.00
2018-07-12T22:10:55.177Z,99804.00
2018-07-12T22:13:00.182Z,99802.00
2018-07-12T22:15:04.716Z,99802.00
2018-07-12T22:17:09.152Z,99805.00
2018-07-12T22:19:13.578Z,99801.00
2018-07-12T22:21:18.486Z,99806.00
2018-07-12T22:23:22.999Z,99796.00
2018-07-12T22:25:27.506Z,99799.00
2018-07-12T22:27:31.979Z,99793.00
2018-07-12T22:29:36.114Z,99794.00
2018-07-12T22:31:40.335Z,99792.00
2018-07-12T22:33:44.851Z,99803.00
2018-07-12T22:35:49.367Z,99795.00
2018-07-12T22:37:53.915Z,99796.00
2018-07-12T22:39:58.663Z,99790.00
2018-07-12T22:42:03.107Z,99800.00
2018-07-12T22:44:07.542Z,99804.00
2018-07-12T22:46:11.994Z,99793.00
2018-07-12T22:48:16.556Z,99795.00
2018-07-12T22:50:20.953Z,99804.00
2018-07-12T22:52:25.422Z,99797.00
2018-07-12T22:54:29.986Z,99798.00
2018-07-12T22:56:34.419Z,99792.00
2018-07-12T22:58:38.839Z,99799.00
2018-07-12T23:00:43.308Z,99799.00
2018-07-12T23:02:47.731Z,99800.00
2018-07-12T23:04:52.234Z,99800.00
2018-07-12T23:06:56.761Z,99800.00
2018-07-12T23:09:01.223Z,99800.00
2018-07-12T23:11:05.914Z,99797.00
2018-07-12T23:13:10.413Z,99807.00
2018-07-12T23:15:14.842Z,99800.00
2018-07-12T23:17:19.299Z,99805.00
2018-07-12T23:19:25.142Z,99798.00
2018-07-12T23:21:29.681Z,99802.00
2018-07-12T23:23:34.140Z,99806.00
2018-07-12T23:25:38.953Z,99808.00
2018-07-12T23:27:43.411Z,99812.00
2018-07-12T23:29:48.277Z,99800.00
2018-07-12T23:31:52.762Z,99806.00
2018-07-12T23:33:57.239Z,99802.00
2018-07-12T23:36:01.710Z,99800.00
2018-07-12T23:38:06.939Z,99798.00
2018-07-12T23:40:11.468Z,99803.00
2018-07-12T23:42:16.001Z,99799.00
2018-07-12T23:44:20.459Z,99804.00
2018-07-12T23:46:24.985Z,99803.00
2018-07-12T23:48:29.435Z,99802.00
2018-07-12T23:50:33.601Z,99801.00
2018-07-12T23:52:38.870Z,99808.00
2018-07-12T23:54:43.285Z,99810.00
2018-07-12T23:56:47.771Z,99810.00
2018-07-12T23:58:52.263Z,99812.00
